createdAt,value
2022-11-16T00:00:23.164Z,17.799999
2022-11-16T00:01:31.718Z,19.200001
2022-11-16T00:02:40.062Z,19.200001
2022-11-16T00:03:48.408Z,19.200001
2022-11-16T00:04:56.953Z,17.9
2022-11-16T00:06:05.299Z,17.9
2022-11-16T00:07:13.732Z,17.9
2022-11-16T00:08:22.196Z,20.6
2022-11-16T00:09:30.546Z,20.6
2022-11-16T00:10:38.888Z,20.6
2022-11-16T00:11:47.451Z,18.1
2022-11-16T00:12:55.806Z,18.1
2022-11-16T00:14:04.136Z,18.1
2022-11-16T00:15:12.681Z,20.4
2022-11-16T00:16:21.016Z,20.4
2022-11-16T00:17:29.360Z,20.4
2022-11-16T00:18:37.916Z,19.299999
2022-11-16T00:19:46.249Z,19.299999
2022-11-16T00:20:54.591Z,19.299999
2022-11-16T00:22:03.146Z,19.700001
2022-11-16T00:23:11.502Z,19.700001
2022-11-16T00:24:19.811Z,19.700001
2022-11-16T00:25:28.360Z,19.6
2022-11-16T00:26:36.697Z,19.6
2022-11-16T00:27:45.042Z,19.6
2022-11-16T00:28:53.594Z,19.700001
2022-11-16T00:30:01.950Z,19.700001
2022-11-16T00:31:10.265Z,19.700001
2022-11-16T00:32:18.826Z,20.1
2022-11-16T00:33:27.157Z,20.1
2022-11-16T00:34:35.493Z,20.1
2022-11-16T00:35:44.039Z,18.4
2022-11-16T00:36:52.378Z,18.4
2022-11-16T00:38:00.723Z,18.4
2022-11-16T00:39:09.292Z,19.299999
2022-11-16T00:40:17.613Z,19.299999
2022-11-16T00:41:25.953Z,19.299999
2022-11-16T00:42:34.528Z,17.799999
2022-11-16T00:43:42.874Z,17.799999
2022-11-16T00:44:51.206Z,17.799999
2022-11-16T00:45:59.746Z,20.9
2022-11-16T00:47:08.090Z,20.9
2022-11-16T00:48:16.426Z,20.9
2022-11-16T00:49:24.973Z,17.5
2022-11-16T00:50:33.305Z,17.5
2022-11-16T00:51:41.636Z,17.5
2022-11-16T00:52:50.247Z,19.4
2022-11-16T00:53:58.600Z,19.4
2022-11-16T00:55:06.975Z,19.4
2022-11-16T00:56:15.483Z,19.1
2022-11-16T00:57:23.846Z,19.1
2022-11-16T00:58:32.603Z,19.1
2022-11-16T00:59:40.716Z,20.799999
2022-11-16T01:00:49.243Z,20.799999
2022-11-16T01:01:57.383Z,20.799999
2022-11-16T01:03:05.934Z,17.6
2022-11-16T01:04:14.271Z,17.6
2022-11-16T01:05:22.599Z,17.6
2022-11-16T01:06:31.149Z,18
2022-11-16T01:07:39.506Z,18
2022-11-16T01:08:47.847Z,18
2022-11-16T01:09:56.396Z,17.299999
2022-11-16T01:11:04.755Z,17.299999
2022-11-16T01:12:13.052Z,17.299999
2022-11-16T01:13:21.608Z,17.1
2022-11-16T01:14:29.952Z,17.1
2022-11-16T01:15:38.280Z,17.1
2022-11-16T01:16:46.823Z,15.8
2022-11-16T01:17:55.163Z,15.8
2022-11-16T01:19:03.517Z,15.8
2022-11-16T01:20:12.070Z,15.8
2022-11-16T01:21:20.414Z,15.8
2022-11-16T01:22:28.746Z,15.8
2022-11-16T01:23:37.304Z,16.200001
2022-11-16T01:24:45.639Z,16.200001
2022-11-16T01:25:53.973Z,16.200001
2022-11-16T01:27:02.553Z,14.1
2022-11-16T01:28:10.872Z,14.1
2022-11-16T01:29:19.215Z,14.1
2022-11-16T01:30:27.760Z,14.8
2022-11-16T01:31:36.088Z,14.8
2022-11-16T01:32:44.426Z,14.8
2022-11-16T01:33:52.988Z,13.9
2022-11-16T01:35:01.322Z,13.9
2022-11-16T01:36:09.672Z,13.9
2022-11-16T01:37:18.215Z,13.8
2022-11-16T01:38:29.679Z,13.8
2022-11-16T01:39:34.905Z,13.8
2022-11-16T01:40:43.453Z,14.4
2022-11-16T01:41:51.792Z,14.4
2022-11-16T01:43:00.157Z,14.4
2022-11-16T01:44:08.682Z,13.6
2022-11-16T01:45:17.024Z,13.6
2022-11-16T01:46:25.361Z,13.6
2022-11-16T01:47:33.912Z,13.4
2022-11-16T01:48:42.316Z,13.4
2022-11-16T01:49:50.600Z,13.4
2022-11-16T01:50:59.140Z,13.3
2022-11-16T01:52:07.470Z,13.3
2022-11-16T01:53:15.818Z,13.3
2022-11-16T01:54:24.372Z,13.6
2022-11-16T01:55:32.706Z,13.6
2022-11-16T01:56:41.037Z,13.6
2022-11-16T01:57:49.590Z,15.1
2022-11-16T01:58:57.974Z,15.1
2022-11-16T02:00:06.279Z,15.1
2022-11-16T02:01:14.915Z,14.1
2022-11-16T02:02:23.166Z,14.1
2022-11-16T02:03:31.514Z,14.1
2022-11-16T02:04:40.065Z,13.4
2022-11-16T02:05:48.410Z,13.4
2022-11-16T02:06:56.814Z,13.4
2022-11-16T02:08:05.311Z,14.1
2022-11-16T02:09:13.642Z,14.1
2022-11-16T02:10:21.980Z,14.1
2022-11-16T02:11:30.521Z,14.2
2022-11-16T02:12:38.860Z,14.2
2022-11-16T02:13:47.235Z,14.2
2022-11-16T02:14:55.793Z,15
2022-11-16T02:16:04.112Z,15
2022-11-16T02:17:12.454Z,15
2022-11-16T02:18:21.016Z,13.8
2022-11-16T02:19:29.353Z,13.8
2022-11-16T02:20:37.688Z,13.8
2022-11-16T02:21:46.235Z,15
2022-11-16T02:22:54.571Z,15
2022-11-16T02:24:02.950Z,15
2022-11-16T02:25:11.469Z,14.7
2022-11-16T02:26:19.811Z,14.7
2022-11-16T02:27:28.148Z,14.7
2022-11-16T02:28:36.887Z,13.9
2022-11-16T02:29:45.044Z,13.9
2022-11-16T02:30:53.430Z,13.9
2022-11-16T02:32:01.954Z,13.7
2022-11-16T02:33:10.288Z,13.7
2022-11-16T02:34:18.635Z,13.7
2022-11-16T02:35:27.233Z,15
2022-11-16T02:36:35.568Z,15
2022-11-16T02:37:43.916Z,15
2022-11-16T02:38:52.475Z,14.6
2022-11-16T02:40:00.799Z,14.6
2022-11-16T02:41:09.145Z,14.6
2022-11-16T02:42:17.722Z,15.4
2022-11-16T02:43:26.055Z,15.4
2022-11-16T02:44:34.391Z,15.4
2022-11-16T02:45:42.931Z,14.4
2022-11-16T02:46:51.287Z,14.4
2022-11-16T02:47:59.600Z,14.4
2022-11-16T02:49:08.154Z,16.6
2022-11-16T02:50:16.492Z,16.6
2022-11-16T02:51:24.825Z,16.6
2022-11-16T02:52:33.364Z,15.1
2022-11-16T02:53:41.726Z,15.1
2022-11-16T02:54:50.068Z,15.1
2022-11-16T02:55:58.603Z,15
2022-11-16T02:57:06.939Z,15
2022-11-16T02:58:15.283Z,15
2022-11-16T02:59:23.836Z,14.2
2022-11-16T03:00:32.173Z,14.2
2022-11-16T03:01:40.514Z,14.2
2022-11-16T03:02:49.075Z,14.7
2022-11-16T03:03:57.401Z,14.7
2022-11-16T03:05:05.735Z,14.7
2022-11-16T03:06:14.263Z,14.4
2022-11-16T03:07:22.636Z,14.4
2022-11-16T03:08:31.284Z,14.4
2022-11-16T03:09:39.492Z,16.1
2022-11-16T03:10:47.831Z,16.1
2022-11-16T03:11:56.193Z,16.1
2022-11-16T03:13:04.715Z,17
2022-11-16T03:14:13.058Z,17
2022-11-16T03:15:21.391Z,17
2022-11-16T03:16:29.937Z,16.200001
2022-11-16T03:17:38.269Z,16.200001
2022-11-16T03:18:46.640Z,16.200001
2022-11-16T03:19:55.160Z,15.4
2022-11-16T03:21:03.495Z,15.4
2022-11-16T03:22:11.830Z,15.4
2022-11-16T03:23:20.377Z,15.5
2022-11-16T03:24:28.728Z,15.5
2022-11-16T03:25:37.075Z,15.5
2022-11-16T03:26:45.619Z,16.700001
2022-11-16T03:27:53.944Z,16.700001
2022-11-16T03:29:02.291Z,16.700001
2022-11-16T03:30:10.841Z,17.9
2022-11-16T03:31:19.173Z,17.9
2022-11-16T03:32:27.526Z,17.9
2022-11-16T03:33:36.063Z,17.700001
2022-11-16T03:34:44.441Z,17.700001
2022-11-16T03:35:52.761Z,17.700001
2022-11-16T03:37:01.295Z,17.6
2022-11-16T03:38:09.630Z,17.6
2022-11-16T03:39:17.972Z,17.6
2022-11-16T03:40:26.519Z,18.700001
2022-11-16T03:41:34.849Z,18.700001
2022-11-16T03:42:43.202Z,18.700001
2022-11-16T03:43:51.751Z,18
2022-11-16T03:45:00.110Z,18
2022-11-16T03:46:08.434Z,18
2022-11-16T03:47:16.999Z,16.700001
2022-11-16T03:48:25.343Z,16.700001
2022-11-16T03:49:33.701Z,16.700001
2022-11-16T03:50:42.262Z,17.700001
2022-11-16T03:51:50.579Z,17.700001
2022-11-16T03:52:58.919Z,17.700001
2022-11-16T03:54:07.480Z,15.4
2022-11-16T03:55:15.824Z,15.4
2022-11-16T03:56:24.156Z,15.4
2022-11-16T03:57:32.700Z,16
2022-11-16T03:58:41.036Z,16
2022-11-16T03:59:49.377Z,16
2022-11-16T04:00:57.950Z,16.299999
2022-11-16T04:02:06.251Z,16.299999
2022-11-16T04:03:14.587Z,16.299999
2022-11-16T04:04:23.139Z,15.9
2022-11-16T04:05:31.466Z,15.9
2022-11-16T04:06:39.822Z,15.9
2022-11-16T04:07:48.361Z,14.8
2022-11-16T04:08:56.689Z,14.8
2022-11-16T04:10:05.040Z,14.8
2022-11-16T04:11:13.567Z,16.200001
2022-11-16T04:12:21.897Z,16.200001
2022-11-16T04:13:30.228Z,16.200001
2022-11-16T04:14:38.783Z,16.1
2022-11-16T04:15:47.111Z,16.1
2022-11-16T04:16:55.442Z,16.1
2022-11-16T04:18:03.980Z,16.6
2022-11-16T04:19:12.320Z,16.6
2022-11-16T04:20:20.659Z,16.6
2022-11-16T04:21:29.200Z,17.200001
2022-11-16T04:22:37.557Z,17.200001
2022-11-16T04:23:45.854Z,17.200001
2022-11-16T04:24:54.409Z,16
2022-11-16T04:26:02.751Z,16
2022-11-16T04:27:11.085Z,16
2022-11-16T04:28:19.628Z,15.9
2022-11-16T04:29:27.960Z,15.9
2022-11-16T04:30:36.299Z,15.9
2022-11-16T04:31:44.832Z,16.1
2022-11-16T04:32:53.179Z,16.1
2022-11-16T04:34:01.483Z,16.1
2022-11-16T04:35:10.055Z,16.200001
2022-11-16T04:36:20.660Z,16.200001
2022-11-16T04:37:26.700Z,16.200001
2022-11-16T04:38:35.576Z,14.9
2022-11-16T04:39:43.629Z,14.9
2022-11-16T04:40:51.956Z,14.9
2022-11-16T04:42:00.493Z,17.299999
2022-11-16T04:43:08.817Z,17.299999
2022-11-16T04:44:17.155Z,17.299999
2022-11-16T04:45:25.703Z,15.2
2022-11-16T04:46:34.039Z,15.2
2022-11-16T04:47:42.366Z,15.2
2022-11-16T04:48:50.917Z,14.5
2022-11-16T04:49:59.254Z,14.5
2022-11-16T04:51:07.594Z,14.5
2022-11-16T04:52:16.152Z,15.1
2022-11-16T04:53:24.487Z,15.1
2022-11-16T04:54:32.836Z,15.1
2022-11-16T04:55:41.375Z,14.5
2022-11-16T04:56:49.698Z,14.5
2022-11-16T04:57:58.038Z,14.5
2022-11-16T04:59:06.599Z,14.5
2022-11-16T05:00:14.993Z,14.5
2022-11-16T05:01:23.361Z,14.5
2022-11-16T05:02:31.858Z,14.7
2022-11-16T05:03:40.181Z,14.7
2022-11-16T05:04:48.539Z,14.7
2022-11-16T05:05:57.068Z,36
2022-11-16T05:07:05.396Z,36
2022-11-16T05:08:13.732Z,36
2022-11-16T05:09:22.280Z,39.700001
2022-11-16T05:10:30.646Z,39.700001
2022-11-16T05:11:38.961Z,39.700001
2022-11-16T05:12:47.497Z,24.299999
2022-11-16T05:13:55.829Z,24.299999
2022-11-16T05:15:04.174Z,24.299999
2022-11-16T05:16:12.705Z,17.200001
2022-11-16T05:17:21.044Z,17.200001
2022-11-16T05:18:29.368Z,17.200001
2022-11-16T05:19:37.911Z,20.299999
2022-11-16T05:20:46.258Z,20.299999
2022-11-16T05:21:54.591Z,20.299999
2022-11-16T05:23:03.128Z,20.6
2022-11-16T05:24:11.460Z,20.6
2022-11-16T05:25:19.803Z,20.6
2022-11-16T05:26:28.362Z,17.799999
2022-11-16T05:27:36.668Z,17.799999
2022-11-16T05:28:45.006Z,17.799999
2022-11-16T05:29:53.559Z,19
2022-11-16T05:31:01.919Z,19
2022-11-16T05:32:10.241Z,19
2022-11-16T05:33:18.790Z,20.4
2022-11-16T05:34:27.104Z,20.4
2022-11-16T05:35:35.456Z,20.4
2022-11-16T05:36:44.013Z,20.200001
2022-11-16T05:37:52.352Z,20.200001
2022-11-16T05:39:00.684Z,20.200001
2022-11-16T05:40:09.229Z,16.5
2022-11-16T05:41:17.561Z,16.5
2022-11-16T05:42:25.918Z,16.5
2022-11-16T05:43:34.426Z,12.5
2022-11-16T05:44:42.759Z,12.5
2022-11-16T05:45:51.102Z,12.5
2022-11-16T05:46:59.633Z,13.7
2022-11-16T05:48:07.967Z,13.7
2022-11-16T05:49:16.315Z,13.7
2022-11-16T05:50:24.879Z,14.7
2022-11-16T05:51:33.216Z,14.7
2022-11-16T05:52:41.539Z,14.7
2022-11-16T05:53:50.079Z,11
2022-11-16T05:54:58.408Z,11
2022-11-16T05:56:06.807Z,11
2022-11-16T05:57:15.280Z,13.3
2022-11-16T05:58:23.636Z,13.3
2022-11-16T05:59:31.969Z,13.3
2022-11-16T06:00:40.511Z,12.6
2022-11-16T06:01:48.836Z,12.6
2022-11-16T06:02:57.206Z,12.6
2022-11-16T06:04:05.719Z,13.1
2022-11-16T06:05:14.103Z,13.1
2022-11-16T06:06:22.400Z,13.1
2022-11-16T06:07:31.018Z,11.8
2022-11-16T06:08:39.284Z,11.8
2022-11-16T06:09:47.628Z,11.8
2022-11-16T06:10:56.172Z,10.7
2022-11-16T06:12:04.513Z,10.7
2022-11-16T06:13:12.879Z,10.7
2022-11-16T06:14:21.425Z,13.1
2022-11-16T06:15:29.805Z,13.1
2022-11-16T06:16:38.454Z,13.1
2022-11-16T06:17:46.716Z,17.799999
2022-11-16T06:18:55.040Z,17.799999
2022-11-16T06:20:03.370Z,17.799999
2022-11-16T06:21:11.952Z,121.4
2022-11-16T06:22:20.270Z,121.4
2022-11-16T06:23:28.605Z,121.4
2022-11-16T06:24:37.143Z,18.799999
2022-11-16T06:25:45.494Z,18.799999
2022-11-16T06:26:53.835Z,18.799999
2022-11-16T06:28:06.730Z,13.9
2022-11-16T06:29:10.695Z,13.9
2022-11-16T06:30:19.040Z,13.9
2022-11-16T06:31:27.560Z,14.6
2022-11-16T06:32:35.909Z,14.6
2022-11-16T06:33:44.225Z,14.6
2022-11-16T06:34:52.761Z,16.9
2022-11-16T06:36:01.099Z,16.9
2022-11-16T06:37:09.422Z,16.9
2022-11-16T06:38:17.969Z,29.9
2022-11-16T06:39:26.299Z,29.9
2022-11-16T06:40:34.629Z,29.9
2022-11-16T06:41:43.163Z,26.6
2022-11-16T06:42:51.501Z,26.6
2022-11-16T06:43:59.825Z,26.6
2022-11-16T06:45:08.367Z,24.5
2022-11-16T06:46:16.711Z,24.5
2022-11-16T06:47:25.037Z,24.5
2022-11-16T06:48:34.309Z,22.4
2022-11-16T06:49:41.925Z,22.4
2022-11-16T06:50:50.257Z,22.4
2022-11-16T06:51:58.797Z,14.7
2022-11-16T06:53:07.128Z,14.7
2022-11-16T06:54:15.455Z,14.7
2022-11-16T06:55:23.988Z,14.4
2022-11-16T06:56:32.331Z,14.4
2022-11-16T06:57:40.660Z,14.4
2022-11-16T06:58:53.178Z,16.200001
2022-11-16T06:59:57.539Z,16.200001
2022-11-16T07:01:05.875Z,16.200001
2022-11-16T07:02:14.539Z,14.3
2022-11-16T07:03:22.763Z,14.3
2022-11-16T07:04:31.142Z,14.3
2022-11-16T07:05:39.631Z,16.299999
2022-11-16T07:06:48.004Z,16.299999
2022-11-16T07:07:56.292Z,16.299999
2022-11-16T07:09:04.831Z,14.5
2022-11-16T07:10:13.156Z,14.5
2022-11-16T07:11:21.505Z,14.5
2022-11-16T07:12:30.068Z,15.1
2022-11-16T07:13:38.390Z,15.1
2022-11-16T07:14:46.732Z,15.1
2022-11-16T07:15:55.290Z,14.8
2022-11-16T07:17:08.158Z,14.8
2022-11-16T07:18:11.936Z,14.8
2022-11-16T07:19:20.491Z,15.2
2022-11-16T07:20:29.070Z,15.2
2022-11-16T07:21:37.163Z,15.2
2022-11-16T07:22:45.696Z,15.6
2022-11-16T07:23:54.030Z,15.6
2022-11-16T07:25:02.366Z,15.6
2022-11-16T07:26:10.915Z,15.4
2022-11-16T07:27:19.228Z,15.4
2022-11-16T07:28:27.567Z,15.4
2022-11-16T07:29:36.119Z,14.6
2022-11-16T07:30:44.449Z,14.6
2022-11-16T07:31:52.789Z,14.6
2022-11-16T07:33:01.330Z,14.3
2022-11-16T07:34:09.661Z,14.3
2022-11-16T07:35:17.990Z,14.3
2022-11-16T07:36:26.668Z,15
2022-11-16T07:37:34.874Z,15
2022-11-16T07:38:43.203Z,15
2022-11-16T07:39:51.756Z,16.5
2022-11-16T07:41:00.093Z,16.5
2022-11-16T07:42:08.419Z,16.5
2022-11-16T07:43:16.956Z,18.700001
2022-11-16T07:44:25.278Z,18.700001
2022-11-16T07:45:33.612Z,18.700001
2022-11-16T07:46:47.391Z,18.200001
2022-11-16T07:47:50.486Z,18.200001
2022-11-16T07:48:58.818Z,18.200001
2022-11-16T07:50:07.367Z,18.6
2022-11-16T07:51:15.695Z,18.6
2022-11-16T07:52:24.322Z,18.6
2022-11-16T07:53:32.560Z,20.1
2022-11-16T07:54:40.881Z,20.1
2022-11-16T07:55:49.212Z,20.1
2022-11-16T07:56:57.784Z,18.4
2022-11-16T07:58:06.087Z,18.4
2022-11-16T07:59:14.415Z,18.4
2022-11-16T08:00:22.951Z,20.799999
2022-11-16T08:01:31.311Z,20.799999
2022-11-16T08:02:39.612Z,20.799999
2022-11-16T08:03:48.143Z,18.6
2022-11-16T08:04:56.472Z,18.6
2022-11-16T08:06:04.803Z,18.6
2022-11-16T08:07:13.394Z,18.4
2022-11-16T08:08:21.812Z,18.4
2022-11-16T08:09:30.027Z,18.4
2022-11-16T08:10:38.572Z,19.6
2022-11-16T08:11:46.904Z,19.6
2022-11-16T08:12:55.228Z,19.6
2022-11-16T08:14:03.783Z,18.6
2022-11-16T08:15:12.101Z,18.6
2022-11-16T08:16:20.439Z,18.6
2022-11-16T08:17:28.997Z,17.5
2022-11-16T08:18:37.321Z,17.5
2022-11-16T08:19:45.646Z,17.5
2022-11-16T08:20:54.181Z,17.299999
2022-11-16T08:22:02.516Z,17.299999
2022-11-16T08:23:10.846Z,17.299999
2022-11-16T08:24:19.405Z,19.6
2022-11-16T08:25:27.714Z,19.6
2022-11-16T08:26:36.063Z,19.6
2022-11-16T08:27:44.588Z,18.6
2022-11-16T08:28:52.915Z,18.6
2022-11-16T08:30:01.265Z,18.6
2022-11-16T08:31:09.790Z,17.9
2022-11-16T08:32:18.136Z,17.9
2022-11-16T08:33:26.457Z,17.9
2022-11-16T08:34:34.997Z,20.200001
2022-11-16T08:35:43.332Z,20.200001
2022-11-16T08:36:51.682Z,20.200001
2022-11-16T08:38:00.210Z,19.700001
2022-11-16T08:39:08.543Z,19.700001
2022-11-16T08:40:16.988Z,19.700001
2022-11-16T08:41:25.409Z,18.6
2022-11-16T08:42:33.760Z,18.6
2022-11-16T08:43:42.082Z,18.6
2022-11-16T08:44:50.628Z,18.5
2022-11-16T08:45:58.969Z,18.5
2022-11-16T08:47:07.307Z,18.5
2022-11-16T08:48:15.844Z,18.9
2022-11-16T08:49:24.174Z,18.9
2022-11-16T08:50:39.800Z,18.9
2022-11-16T08:51:41.044Z,18.700001
2022-11-16T08:52:49.385Z,18.700001
2022-11-16T08:53:57.828Z,18.700001
2022-11-16T08:55:06.262Z,18.299999
2022-11-16T08:56:14.720Z,18.299999
2022-11-16T08:57:22.931Z,18.299999
2022-11-16T08:58:31.763Z,19.1
2022-11-16T08:59:39.816Z,19.1
2022-11-16T09:00:48.145Z,19.1
2022-11-16T09:01:56.804Z,17
2022-11-16T09:03:05.062Z,17
2022-11-16T09:04:13.384Z,17
2022-11-16T09:05:21.952Z,16
2022-11-16T09:06:30.284Z,16
2022-11-16T09:07:38.650Z,16
2022-11-16T09:08:47.157Z,15.5
2022-11-16T09:09:55.488Z,15.5
2022-11-16T09:11:03.828Z,15.5
2022-11-16T09:12:12.496Z,12.4
2022-11-16T09:13:20.696Z,12.4
2022-11-16T09:14:29.064Z,12.4
2022-11-16T09:15:37.569Z,8.9
2022-11-16T09:16:45.928Z,8.9
2022-11-16T09:17:54.273Z,8.9
2022-11-16T09:19:02.824Z,8.6
2022-11-16T09:20:11.141Z,8.6
2022-11-16T09:21:19.474Z,8.6
2022-11-16T09:22:28.012Z,7.2
2022-11-16T09:23:36.344Z,7.2
2022-11-16T09:24:44.694Z,7.2
2022-11-16T09:25:53.226Z,6.5
2022-11-16T09:27:01.583Z,6.5
2022-11-16T09:28:09.929Z,6.5
2022-11-16T09:29:18.439Z,6
2022-11-16T09:30:26.768Z,6
2022-11-16T09:31:35.107Z,6
2022-11-16T09:32:43.660Z,6.9
2022-11-16T09:33:52.006Z,6.9
2022-11-16T09:35:00.338Z,6.9
2022-11-16T09:36:08.862Z,6.4
2022-11-16T09:37:17.208Z,6.4
2022-11-16T09:38:40.102Z,6.4
2022-11-16T09:39:34.068Z,5.3
2022-11-16T09:40:42.396Z,5.3
2022-11-16T09:41:50.726Z,5.3
2022-11-16T09:42:59.255Z,5
2022-11-16T09:44:07.629Z,5
2022-11-16T09:45:15.936Z,5
2022-11-16T09:46:24.471Z,4.8
2022-11-16T09:47:32.808Z,4.8
2022-11-16T09:48:41.156Z,4.8
2022-11-16T09:49:49.741Z,5.2
2022-11-16T09:50:58.078Z,5.2
2022-11-16T09:52:06.435Z,5.2
2022-11-16T09:53:14.963Z,4.1
2022-11-16T09:54:23.313Z,4.1
2022-11-16T09:55:31.633Z,4.1
2022-11-16T09:56:40.165Z,4
2022-11-16T09:57:48.514Z,4
2022-11-16T09:58:56.846Z,4
2022-11-16T10:00:05.513Z,3.6
2022-11-16T10:01:13.787Z,3.6
2022-11-16T10:02:22.051Z,3.6
2022-11-16T10:03:30.696Z,5
2022-11-16T10:04:38.931Z,5
2022-11-16T10:05:47.255Z,5
2022-11-16T10:06:55.848Z,4.4
2022-11-16T10:08:04.137Z,4.4
2022-11-16T10:09:12.470Z,4.4
2022-11-16T10:10:21.069Z,3.9
2022-11-16T10:11:29.345Z,3.9
2022-11-16T10:12:37.673Z,3.9
2022-11-16T10:13:46.228Z,3.9
2022-11-16T10:14:54.552Z,3.9
2022-11-16T10:16:03.017Z,3.9
2022-11-16T10:17:11.450Z,4.7
2022-11-16T10:18:19.769Z,4.7
2022-11-16T10:19:28.106Z,4.7
2022-11-16T10:20:36.640Z,5.1
2022-11-16T10:21:44.970Z,5.1
2022-11-16T10:22:53.333Z,5.1
2022-11-16T10:24:01.892Z,4.8
2022-11-16T10:25:10.199Z,4.8
2022-11-16T10:26:18.539Z,4.8
2022-11-16T10:27:27.171Z,5
2022-11-16T10:28:35.414Z,5
2022-11-16T10:29:43.742Z,5
2022-11-16T10:30:52.280Z,5.4
2022-11-16T10:32:00.625Z,5.4
2022-11-16T10:33:11.242Z,5.4
2022-11-16T10:34:17.475Z,5.5
2022-11-16T10:35:25.813Z,5.5
2022-11-16T10:36:34.149Z,5.5
2022-11-16T10:37:42.694Z,4.2
2022-11-16T10:38:51.032Z,4.2
2022-11-16T10:39:59.378Z,4.2
2022-11-16T10:41:07.900Z,5.7
2022-11-16T10:42:16.232Z,5.7
2022-11-16T10:43:24.568Z,5.7
2022-11-16T10:44:33.110Z,5
2022-11-16T10:45:41.449Z,5
2022-11-16T10:46:49.779Z,5
2022-11-16T10:47:58.437Z,4.7
2022-11-16T10:49:06.647Z,4.7
2022-11-16T10:50:14.978Z,4.7
2022-11-16T10:51:23.516Z,4.8
2022-11-16T10:52:31.846Z,4.8
2022-11-16T10:53:40.174Z,4.8
2022-11-16T10:54:48.712Z,6.4
2022-11-16T10:55:57.037Z,6.4
2022-11-16T10:57:05.381Z,6.4
2022-11-16T10:58:13.927Z,13.7
2022-11-16T10:59:22.257Z,13.7
2022-11-16T11:00:30.658Z,13.7
2022-11-16T11:01:39.131Z,7.3
2022-11-16T11:02:47.481Z,7.3
2022-11-16T11:03:55.916Z,7.3
2022-11-16T11:05:04.367Z,7.6
2022-11-16T11:06:12.700Z,7.6
2022-11-16T11:07:21.109Z,7.6
2022-11-16T11:08:29.577Z,9.9
2022-11-16T11:09:37.925Z,9.9
2022-11-16T11:10:46.234Z,9.9
2022-11-16T11:11:54.775Z,10
2022-11-16T11:13:03.122Z,10
2022-11-16T11:14:11.450Z,10
2022-11-16T11:15:24.360Z,9.9
2022-11-16T11:16:28.331Z,9.9
2022-11-16T11:17:36.646Z,9.9
2022-11-16T11:18:45.203Z,9.1
2022-11-16T11:19:53.557Z,9.1
2022-11-16T11:21:01.859Z,9.1
2022-11-16T11:22:10.414Z,9.7
2022-11-16T11:23:18.750Z,9.7
2022-11-16T11:24:43.741Z,9.7
2022-11-16T11:25:35.617Z,7.5
2022-11-16T11:26:43.950Z,7.5
2022-11-16T11:27:52.283Z,7.5
2022-11-16T11:29:00.836Z,7.9
2022-11-16T11:30:09.155Z,7.9
2022-11-16T11:31:17.484Z,7.9
2022-11-16T11:32:26.037Z,9.3
2022-11-16T11:33:34.665Z,9.3
2022-11-16T11:34:42.711Z,9.3
2022-11-16T11:35:51.266Z,7.4
2022-11-16T11:36:59.577Z,7.4
2022-11-16T11:38:08.609Z,7.4
2022-11-16T11:39:16.494Z,7.1
2022-11-16T11:40:24.781Z,7.1
2022-11-16T11:41:33.136Z,7.1
2022-11-16T11:42:41.675Z,7.4
2022-11-16T11:43:49.998Z,7.4
2022-11-16T11:44:58.325Z,7.4
2022-11-16T11:46:06.867Z,9.2
2022-11-16T11:48:23.529Z,9.2
2022-11-16T11:49:33.765Z,7.7
2022-11-16T11:50:40.396Z,7.7
2022-11-16T11:51:48.754Z,7.7
2022-11-16T11:52:57.285Z,5.6
2022-11-16T11:54:05.608Z,5.6
2022-11-16T11:55:13.942Z,5.6
2022-11-16T11:56:22.482Z,6.4
2022-11-16T11:57:30.812Z,6.4
2022-11-16T11:58:39.143Z,6.4
2022-11-16T11:59:47.698Z,6.5
2022-11-16T12:00:56.025Z,6.5
2022-11-16T12:02:04.354Z,6.5
2022-11-16T12:03:12.980Z,7.1
2022-11-16T12:04:21.258Z,7.1
2022-11-16T12:05:29.579Z,7.1
2022-11-16T12:06:42.701Z,7.6
2022-11-16T12:07:46.582Z,7.6
2022-11-16T12:08:54.787Z,7.6
2022-11-16T12:10:03.330Z,7.3
2022-11-16T12:11:11.661Z,7.3
2022-11-16T12:12:19.999Z,7.3
2022-11-16T12:13:28.548Z,8.3
2022-11-16T12:14:36.885Z,8.3
2022-11-16T12:15:45.209Z,8.3
2022-11-16T12:16:53.751Z,9.5
2022-11-16T12:18:02.091Z,9.5
2022-11-16T12:19:10.417Z,9.5
2022-11-16T12:20:18.965Z,9.8
2022-11-16T12:21:27.295Z,9.8
2022-11-16T12:22:35.625Z,9.8
2022-11-16T12:23:44.292Z,9.4
2022-11-16T12:24:52.500Z,9.4
2022-11-16T12:26:00.829Z,9.4
2022-11-16T12:27:09.367Z,10.1
2022-11-16T12:28:17.705Z,10.1
2022-11-16T12:29:26.034Z,10.1
2022-11-16T12:30:34.578Z,11.6
2022-11-16T12:31:42.912Z,11.6
2022-11-16T12:32:51.246Z,11.6
2022-11-16T12:33:59.787Z,12.4
2022-11-16T12:35:08.109Z,12.4
2022-11-16T12:36:16.448Z,12.4
2022-11-16T12:37:24.991Z,12.8
2022-11-16T12:38:33.976Z,12.8
2022-11-16T12:39:42.847Z,12.8
2022-11-16T12:40:51.360Z,13.3
2022-11-16T12:41:59.689Z,13.3
2022-11-16T12:43:08.040Z,13.3
2022-11-16T12:44:16.572Z,9.7
2022-11-16T12:45:29.070Z,9.7
2022-11-16T12:46:33.271Z,9.7
2022-11-16T12:47:41.824Z,8.4
2022-11-16T12:48:50.164Z,8.4
2022-11-16T12:49:58.486Z,8.4
2022-11-16T12:51:07.037Z,8.5
2022-11-16T12:52:15.419Z,8.5
2022-11-16T12:53:23.816Z,8.5
2022-11-16T12:54:32.441Z,7.9
2022-11-16T12:55:40.997Z,7.9
2022-11-16T12:56:49.447Z,7.9
2022-11-16T12:57:57.797Z,6.9
2022-11-16T12:59:06.144Z,6.9
2022-11-16T13:00:14.488Z,6.9
2022-11-16T13:01:23.103Z,7.8
2022-11-16T13:02:31.405Z,7.8
2022-11-16T13:03:39.813Z,7.8
2022-11-16T13:04:48.371Z,8.6
2022-11-16T13:05:56.729Z,8.6
2022-11-16T13:07:09.459Z,8.6
2022-11-16T13:08:13.695Z,6.7
2022-11-16T13:09:22.026Z,6.7
2022-11-16T13:10:30.377Z,6.7
2022-11-16T13:11:38.994Z,7.1
2022-11-16T13:12:47.347Z,7.1
2022-11-16T13:13:55.951Z,7.1
2022-11-16T13:15:04.260Z,9.5
2022-11-16T13:16:12.620Z,9.5
2022-11-16T13:17:21.024Z,9.5
2022-11-16T13:18:29.551Z,10.9
2022-11-16T13:19:37.914Z,10.9
2022-11-16T13:20:46.250Z,10.9
2022-11-16T13:21:54.816Z,9.2
2022-11-16T13:23:03.205Z,9.2
2022-11-16T13:24:11.541Z,9.2
2022-11-16T13:25:20.126Z,9.7
2022-11-16T13:26:28.491Z,9.7
2022-11-16T13:27:36.856Z,9.7
2022-11-16T13:28:45.409Z,10.8
2022-11-16T13:29:53.762Z,10.8
2022-11-16T13:31:02.180Z,10.8
2022-11-16T13:32:10.821Z,11.3
2022-11-16T13:33:19.181Z,11.3
2022-11-16T13:34:27.554Z,11.3
2022-11-16T13:35:36.081Z,10.6
2022-11-16T13:36:44.459Z,10.6
2022-11-16T13:37:52.848Z,10.6
2022-11-16T13:39:01.392Z,9.2
2022-11-16T13:40:09.739Z,9.2
2022-11-16T13:41:18.076Z,9.2
2022-11-16T13:42:26.680Z,9.7
2022-11-16T13:43:35.175Z,9.7
2022-11-16T13:44:46.196Z,9.7
2022-11-16T13:45:51.978Z,11.6
2022-11-16T13:47:00.337Z,11.6
2022-11-16T13:48:08.697Z,11.6
2022-11-16T13:49:17.286Z,12.4
2022-11-16T13:50:25.651Z,12.4
2022-11-16T13:51:34.010Z,12.4
2022-11-16T13:53:19.836Z,9.8
2022-11-16T13:54:43.002Z,9.8
2022-11-16T13:54:59.254Z,9.8
2022-11-16T13:56:07.818Z,9.8
2022-11-16T13:57:16.173Z,9.8
2022-11-16T13:58:24.532Z,9.8
2022-11-16T13:59:33.211Z,9.2
2022-11-16T14:00:41.548Z,9.2
2022-11-16T14:01:49.813Z,9.2
2022-11-16T14:03:01.074Z,8.3
2022-11-16T14:04:06.786Z,8.3
2022-11-16T14:05:15.166Z,8.3
2022-11-16T14:06:23.713Z,7.8
2022-11-16T14:07:32.190Z,7.8
2022-11-16T14:08:40.439Z,7.8
2022-11-16T14:09:48.997Z,8.9
2022-11-16T14:10:57.389Z,8.9
2022-11-16T14:12:05.724Z,8.9
2022-11-16T14:13:14.299Z,8.3
2022-11-16T14:14:22.646Z,8.3
2022-11-16T14:15:31.037Z,8.3
2022-11-16T14:16:39.539Z,8.7
2022-11-16T14:17:47.905Z,8.7
2022-11-16T14:18:56.287Z,8.7
2022-11-16T14:20:04.869Z,8.2
2022-11-16T14:21:13.215Z,8.2
2022-11-16T14:22:21.588Z,8.2
2022-11-16T14:23:30.264Z,6.5
2022-11-16T14:24:38.547Z,6.5
2022-11-16T14:25:47.065Z,6.5
2022-11-16T14:26:55.474Z,6.7
2022-11-16T14:28:03.865Z,6.7
2022-11-16T14:29:12.212Z,6.7
2022-11-16T14:30:20.827Z,7.7
2022-11-16T15:03:47.902Z,0
2022-11-16T15:04:55.988Z,0
2022-11-16T15:06:04.318Z,0
2022-11-16T15:07:12.927Z,8.3
2022-11-16T15:08:21.236Z,8.3
2022-11-16T15:09:29.572Z,8.3
2022-11-16T15:10:38.123Z,8.8
2022-11-16T15:11:46.458Z,8.8
2022-11-16T15:12:54.799Z,8.8
2022-11-16T15:14:03.332Z,8.8
2022-11-16T15:15:11.707Z,8.8
2022-11-16T15:16:20.026Z,8.8
2022-11-16T15:17:33.185Z,9.9
2022-11-16T15:18:37.011Z,9.9
2022-11-16T15:19:45.483Z,9.9
2022-11-16T15:20:53.938Z,8.5
2022-11-16T15:22:02.306Z,8.5
2022-11-16T15:23:10.712Z,8.5
2022-11-16T15:24:34.682Z,7.8
2022-11-16T15:25:27.658Z,7.8
2022-11-16T15:26:36.030Z,7.8
2022-11-16T15:27:44.619Z,9.6
2022-11-16T15:28:52.978Z,9.6
2022-11-16T15:30:01.330Z,9.6
2022-11-16T15:31:09.942Z,7.1
2022-11-16T15:32:18.323Z,7.1
2022-11-16T15:33:26.646Z,7.1
2022-11-16T15:34:35.203Z,7.5
2022-11-16T15:35:43.582Z,7.5
2022-11-16T15:36:51.900Z,7.5